KTOI/TOI METAR and TAF weather

Enter ICAO airport designator
Station Type Date Time Source
KTOI METAR 2019/04/25 11:53 UTC NOAA

KTOI 251153Z AUTO 00000KT 10SM CLR 14/13 A2996 RMK AO2 SLP141 T01390128 10150 20122 53002


Station Type Date Time Source
KTOI Decoded METAR 2019/04/25 11:53 UTC NOAA

TROY MUNICIPAL AIRPORT, AL, United States (KTOI) 31-52N 086-01W 118M
Apr 25, 2019 - 07:53 AM EDT / 2019.04.25 1153 UTC
Wind: Calm:0
Visibility: 10 mile(s):0
Sky conditions: clear
Temperature: 57.0 F (13.9 C)
Dew Point: 55.0 F (12.8 C)
Relative Humidity: 93%
Pressure (altimeter): 29.96 in. Hg (1014 hPa)
Pressure tendency: 0.01 inches (0.2 hPa) higher than three hours ago
ob: KTOI 251153Z AUTO 00000KT 10SM CLR 14/13 A2996 RMK AO2 SLP141 T01390128 10150 20122 53002
cycle: 12

Station Type Date Time Source
KTOI TAF 2019/04/25 12:48 UTC NOAA

TAF KTOI 251140Z 2512/2612 VRB02KT P6SM OVC200
FM251500 18009KT P6SM OVC100
FM252200 18014G20KT 6SM RA VCTS OVC040CB PROB30 2523/2602 VRB14G23KT 6SM TSRA BR OVC035CB
FM260200 18014G20KT 6SM -RA BR OVC025
FM260400 18012KT 6SM -RA BR OVC015
FM260800 22009KT P6SM OVC009

Example: see airport list